createdAt,value
2019-04-29T00:00:53.729Z,3.07
2019-04-29T00:03:23.735Z,3.13
2019-04-29T00:05:53.614Z,2.77
2019-04-29T00:08:23.368Z,2.83
2019-04-29T00:10:53.368Z,2.70
2019-04-29T00:13:23.310Z,2.80
2019-04-29T00:16:02.651Z,2.67
2019-04-29T00:19:00.441Z,2.97
2019-04-29T00:21:31.021Z,2.63
2019-04-29T00:24:03.900Z,2.73
2019-04-29T00:26:35.147Z,3.13
2019-04-29T00:29:05.168Z,3.13
2019-04-29T00:31:34.975Z,2.70
2019-04-29T00:34:04.791Z,3.37
2019-04-29T00:36:40.906Z,3.30
2019-04-29T00:39:28.252Z,3.33
2019-04-29T00:42:12.309Z,3.20
2019-04-29T00:44:42.120Z,3.17
2019-04-29T00:47:12.162Z,3.10
2019-04-29T00:49:42.059Z,3.30
2019-04-29T00:52:11.965Z,3.60
2019-04-29T00:54:47.035Z,3.13
2019-04-29T00:57:17.001Z,3.50
2019-04-29T00:59:46.847Z,3.80
2019-04-29T01:02:16.707Z,3.90
2019-04-29T01:04:47.598Z,3.47
2019-04-29T01:07:17.405Z,3.57
2019-04-29T01:09:47.240Z,3.87
2019-04-29T01:12:17.116Z,3.57
2019-04-29T01:14:46.914Z,3.70
2019-04-29T01:17:16.646Z,3.70
2019-04-29T01:19:46.500Z,3.53
2019-04-29T01:22:16.547Z,3.60
2019-04-29T01:24:47.474Z,3.43
2019-04-29T01:27:21.855Z,3.90
2019-04-29T01:29:51.632Z,3.50
2019-04-29T01:32:21.398Z,3.60
2019-04-29T01:34:53.280Z,3.83
2019-04-29T01:37:35.622Z,3.50
2019-04-29T01:40:23.194Z,3.67
2019-04-29T01:42:53.355Z,3.83
2019-04-29T01:45:23.194Z,4.67
2019-04-29T01:47:53.074Z,4.10
2019-04-29T01:50:22.918Z,3.90
2019-04-29T01:52:52.760Z,3.97
2019-04-29T01:55:22.711Z,4.17
2019-04-29T01:57:52.623Z,4.00
2019-04-29T02:00:22.600Z,4.10
2019-04-29T02:02:52.473Z,3.83
2019-04-29T02:05:22.172Z,4.23
2019-04-29T02:07:51.954Z,4.00
2019-04-29T02:10:30.467Z,4.07
2019-04-29T02:13:00.227Z,4.10
2019-04-29T02:15:30.047Z,4.00
2019-04-29T02:17:59.781Z,4.30
2019-04-29T02:20:29.585Z,4.17
2019-04-29T02:23:16.667Z,4.73
2019-04-29T02:25:46.914Z,4.73
2019-04-29T02:28:16.734Z,4.53
2019-04-29T02:30:48.594Z,4.20
2019-04-29T02:33:18.532Z,4.50
2019-04-29T02:35:48.581Z,4.73
2019-04-29T02:38:37.352Z,4.40
2019-04-29T02:41:30.239Z,4.60
2019-04-29T02:44:01.612Z,4.60
2019-04-29T02:46:31.431Z,4.70
2019-04-29T02:49:01.204Z,4.70
2019-04-29T02:51:49.211Z,4.20
2019-04-29T02:54:19.041Z,4.97
2019-04-29T02:56:54.459Z,4.77
2019-04-29T02:59:29.266Z,5.00
2019-04-29T03:02:07.148Z,4.77
2019-04-29T03:04:55.785Z,4.90
2019-04-29T03:07:25.709Z,4.50
2019-04-29T03:09:55.591Z,5.00
2019-04-29T03:12:25.524Z,4.70
2019-04-29T03:14:55.363Z,5.60
2019-04-29T03:17:25.131Z,4.60
2019-04-29T03:20:18.772Z,4.83
2019-04-29T03:22:48.680Z,4.80
2019-04-29T03:25:18.548Z,4.97
2019-04-29T03:27:48.346Z,4.90
2019-04-29T03:30:18.287Z,5.20
2019-04-29T03:32:48.176Z,4.87
2019-04-29T03:35:17.974Z,5.37
2019-04-29T03:37:47.790Z,5.20
2019-04-29T03:40:18.744Z,4.80
2019-04-29T03:42:51.366Z,5.23
2019-04-29T03:45:21.263Z,5.03
2019-04-29T03:47:51.146Z,5.97
2019-04-29T03:50:20.984Z,5.17
2019-04-29T03:52:51.037Z,5.23
2019-04-29T03:55:38.344Z,5.30
2019-04-29T03:57:52.496Z,5.67
2019-04-29T04:00:22.402Z,5.87
2019-04-29T04:03:01.029Z,6.50
2019-04-29T04:05:42.733Z,5.43
2019-04-29T04:08:31.500Z,5.30
2019-04-29T04:11:01.287Z,5.63
2019-04-29T04:13:31.171Z,5.90
2019-04-29T04:16:01.175Z,6.10
2019-04-29T04:18:32.658Z,5.90
2019-04-29T04:21:02.509Z,6.10
2019-04-29T04:23:32.565Z,6.30
2019-04-29T04:26:02.824Z,6.30
2019-04-29T04:28:32.797Z,6.47
2019-04-29T04:31:06.503Z,6.40
2019-04-29T04:33:34.368Z,6.60
2019-04-29T04:36:04.309Z,7.30
2019-04-29T04:38:34.441Z,7.10
2019-04-29T04:41:07.303Z,6.77
2019-04-29T04:43:37.540Z,6.57
2019-04-29T04:46:07.498Z,6.83
2019-04-29T04:48:37.480Z,7.33
2019-04-29T04:51:07.560Z,7.27
2019-04-29T04:53:37.569Z,7.33
2019-04-29T04:56:07.479Z,8.20
2019-04-29T04:58:37.318Z,7.87
2019-04-29T05:01:07.267Z,7.50
2019-04-29T05:03:37.327Z,7.93
2019-04-29T05:06:07.309Z,8.17
2019-04-29T05:08:37.118Z,9.70
2019-04-29T05:11:08.067Z,8.73
2019-04-29T05:13:37.830Z,8.17
2019-04-29T05:16:08.062Z,7.80
2019-04-29T05:18:38.067Z,7.37
2019-04-29T05:21:08.262Z,8.03
2019-04-29T05:23:41.619Z,8.50
2019-04-29T05:26:10.730Z,8.70
2019-04-29T05:28:40.622Z,8.23
2019-04-29T05:31:10.716Z,7.77
2019-04-29T05:33:40.698Z,7.43
2019-04-29T05:36:26.854Z,8.67
2019-04-29T05:39:14.027Z,18.10
2019-04-29T05:41:43.926Z,8.03
2019-04-29T05:44:25.765Z,8.17
2019-04-29T05:46:58.477Z,9.27
2019-04-29T05:49:37.386Z,9.13
2019-04-29T05:52:16.513Z,10.13
2019-04-29T05:54:46.350Z,9.73
2019-04-29T05:57:20.254Z,9.67
2019-04-29T05:59:49.544Z,10.20
2019-04-29T06:02:19.580Z,9.93
2019-04-29T06:04:52.478Z,9.77
2019-04-29T06:07:21.582Z,9.70
2019-04-29T06:09:52.792Z,10.70
2019-04-29T06:12:22.689Z,10.03
2019-04-29T06:14:52.580Z,11.27
2019-04-29T06:17:22.599Z,9.10
2019-04-29T06:19:52.473Z,10.23
2019-04-29T06:22:24.714Z,10.10
2019-04-29T06:24:54.699Z,11.23
2019-04-29T06:27:26.995Z,8.87
2019-04-29T06:29:58.485Z,9.93
2019-04-29T06:32:29.537Z,10.33
2019-04-29T06:34:59.561Z,9.80
2019-04-29T06:37:29.513Z,8.67
2019-04-29T06:39:59.360Z,10.57
2019-04-29T06:42:29.456Z,9.80
2019-04-29T06:44:59.631Z,10.07
2019-04-29T06:47:29.603Z,9.43
2019-04-29T06:49:59.621Z,8.97
2019-04-29T06:52:29.603Z,9.40
2019-04-29T06:54:59.771Z,9.83
2019-04-29T06:57:51.747Z,9.00
2019-04-29T07:00:23.809Z,9.70
2019-04-29T07:02:54.106Z,10.20
2019-04-29T07:05:23.945Z,10.00
2019-04-29T07:07:53.885Z,10.43
2019-04-29T07:10:26.999Z,9.50
2019-04-29T07:12:56.018Z,11.00
2019-04-29T07:15:25.951Z,10.43
2019-04-29T07:17:58.685Z,11.10
2019-04-29T07:20:32.533Z,10.63
2019-04-29T07:23:04.545Z,9.47
2019-04-29T07:25:34.628Z,11.20
2019-04-29T07:31:12.180Z,10.50
2019-04-29T07:33:43.827Z,11.50
2019-04-29T07:36:18.659Z,10.93
2019-04-29T07:38:58.996Z,11.40
2019-04-29T07:41:53.780Z,11.47
2019-04-29T07:45:03.235Z,10.07
2019-04-29T07:48:06.454Z,9.93
2019-04-29T07:50:50.091Z,11.07
2019-04-29T07:56:10.969Z,11.03
2019-04-29T07:58:58.948Z,11.27
2019-04-29T08:01:43.394Z,11.80
2019-04-29T08:04:29.352Z,10.73
2019-04-29T08:07:24.319Z,10.93
2019-04-29T08:09:59.248Z,10.70
2019-04-29T08:12:53.234Z,12.07
2019-04-29T08:15:59.347Z,10.67
2019-04-29T08:18:36.681Z,10.37
2019-04-29T08:21:32.610Z,10.40
2019-04-29T08:24:26.431Z,9.97
2019-04-29T08:27:00.166Z,10.07
2019-04-29T08:29:35.677Z,10.07
2019-04-29T08:38:10.574Z,13.07
2019-04-29T08:41:01.879Z,11.70
2019-04-29T08:44:25.144Z,11.03
2019-04-29T08:47:02.704Z,10.90
2019-04-29T08:49:59.356Z,12.23
2019-04-29T08:52:33.620Z,10.57
2019-04-29T08:55:11.470Z,11.97
2019-04-29T08:58:11.185Z,11.30
2019-04-29T09:00:44.978Z,10.03
2019-04-29T09:03:18.877Z,10.60
2019-04-29T09:06:04.114Z,9.50
2019-04-29T09:08:23.726Z,9.10
2019-04-29T09:10:54.839Z,10.13
2019-04-29T09:13:24.807Z,10.80
2019-04-29T09:15:54.712Z,9.77
2019-04-29T09:18:24.627Z,9.67
2019-04-29T09:20:56.139Z,9.77
2019-04-29T09:23:29.555Z,9.47
2019-04-29T09:26:30.631Z,9.50
2019-04-29T09:29:19.811Z,10.73
2019-04-29T09:31:50.951Z,9.37
2019-04-29T09:34:26.409Z,8.13
2019-04-29T09:36:55.652Z,7.87
2019-04-29T09:39:42.824Z,7.23
2019-04-29T09:42:31.771Z,7.73
2019-04-29T09:45:24.838Z,6.80
2019-04-29T09:48:00.055Z,7.07
2019-04-29T09:50:34.160Z,7.27
2019-04-29T09:53:01.674Z,7.30
2019-04-29T09:55:31.567Z,6.73
2019-04-29T09:58:01.411Z,6.20
2019-04-29T10:00:53.007Z,6.87
2019-04-29T10:03:40.202Z,6.57
2019-04-29T10:06:18.290Z,6.90
2019-04-29T10:08:48.100Z,6.10
2019-04-29T10:11:17.989Z,6.80
2019-04-29T10:13:47.991Z,7.00
2019-04-29T10:16:26.897Z,7.43
2019-04-29T10:19:05.169Z,7.30
2019-04-29T10:21:35.356Z,7.30
2019-04-29T10:24:05.557Z,7.13
2019-04-29T10:26:35.456Z,6.73
2019-04-29T10:29:09.702Z,7.37
2019-04-29T10:31:43.809Z,7.47
2019-04-29T10:34:13.864Z,6.80
2019-04-29T10:36:43.948Z,7.73
2019-04-29T10:39:53.102Z,6.87
2019-04-29T10:42:31.214Z,6.90
2019-04-29T10:45:16.126Z,7.27
2019-04-29T10:48:11.817Z,6.20
2019-04-29T10:50:42.360Z,5.30
2019-04-29T10:53:15.490Z,5.40
2019-04-29T10:55:44.083Z,5.73
2019-04-29T10:58:14.011Z,5.90
2019-04-29T11:01:29.152Z,6.50
2019-04-29T11:04:01.171Z,6.60
2019-04-29T11:06:38.357Z,5.70
2019-04-29T11:09:27.162Z,5.73
2019-04-29T11:11:57.088Z,6.87
2019-04-29T11:14:27.613Z,5.83
2019-04-29T11:16:57.920Z,5.70
2019-04-29T11:19:35.094Z,6.40
2019-04-29T11:22:04.121Z,6.50
2019-04-29T11:24:48.692Z,6.23
2019-04-29T11:27:45.442Z,6.83
2019-04-29T11:30:18.442Z,6.07
2019-04-29T11:32:52.643Z,7.43
2019-04-29T11:35:31.211Z,6.73
2019-04-29T11:38:11.121Z,7.40
2019-04-29T11:40:43.455Z,6.87
2019-04-29T11:43:15.441Z,7.23
2019-04-29T11:45:46.830Z,7.20
2019-04-29T11:48:19.461Z,7.77
2019-04-29T11:51:03.481Z,8.07
2019-04-29T11:53:33.506Z,7.97
2019-04-29T11:56:03.306Z,8.27
2019-04-29T11:58:44.923Z,8.07
2019-04-29T12:01:38.761Z,8.70
2019-04-29T12:04:08.358Z,9.43
2019-04-29T12:06:39.661Z,9.33
2019-04-29T12:09:12.472Z,9.50
2019-04-29T12:11:42.228Z,10.13
2019-04-29T12:14:24.139Z,9.83
2019-04-29T12:17:11.353Z,10.23
2019-04-29T12:19:42.767Z,11.13
2019-04-29T12:22:28.228Z,10.87
2019-04-29T12:24:48.712Z,10.93
2019-04-29T12:27:37.522Z,9.23
2019-04-29T12:30:09.176Z,10.30
2019-04-29T12:33:01.349Z,10.60
2019-04-29T12:35:34.247Z,11.40
2019-04-29T12:38:39.005Z,11.33
2019-04-29T12:41:20.886Z,10.93
2019-04-29T12:43:59.518Z,10.23
2019-04-29T12:46:33.419Z,10.70
2019-04-29T12:49:07.611Z,9.83
2019-04-29T12:51:34.887Z,8.57
2019-04-29T12:54:04.806Z,8.93
2019-04-29T12:56:43.226Z,9.13
2019-04-29T12:59:11.357Z,9.90
2019-04-29T13:02:03.408Z,10.43
2019-04-29T13:05:02.671Z,8.93
2019-04-29T13:07:46.513Z,10.23
2019-04-29T13:10:42.339Z,10.57
2019-04-29T13:13:15.755Z,10.67
2019-04-29T13:16:03.220Z,11.27
2019-04-29T13:18:40.972Z,10.67
2019-04-29T13:21:11.015Z,9.63
2019-04-29T13:23:55.018Z,9.97
2019-04-29T13:26:12.576Z,11.53
2019-04-29T13:28:58.912Z,11.50
2019-04-29T13:31:14.067Z,11.87
2019-04-29T13:33:45.978Z,10.37
2019-04-29T13:36:19.749Z,9.80
2019-04-29T13:38:47.549Z,9.07
2019-04-29T13:41:23.677Z,9.23
2019-04-29T13:43:49.792Z,9.80
2019-04-29T13:46:29.028Z,10.07
2019-04-29T13:49:20.544Z,9.33
2019-04-29T13:51:52.092Z,9.00
2019-04-29T13:54:22.115Z,8.90
2019-04-29T13:56:56.172Z,8.93
2019-04-29T13:59:31.895Z,9.23
2019-04-29T14:02:10.124Z,9.50
2019-04-29T14:04:47.788Z,9.97
2019-04-29T14:07:19.846Z,7.90
2019-04-29T14:10:10.112Z,8.20
2019-04-29T14:12:51.155Z,8.17
2019-04-29T14:15:12.682Z,8.47
2019-04-29T14:17:42.580Z,9.77
2019-04-29T14:20:15.963Z,9.17
2019-04-29T14:22:49.449Z,10.13
2019-04-29T14:25:22.243Z,10.30
2019-04-29T14:27:54.691Z,9.43
2019-04-29T14:30:38.469Z,9.03
2019-04-29T14:33:03.295Z,8.70
2019-04-29T14:35:43.711Z,9.67
2019-04-29T14:38:12.751Z,8.97
2019-04-29T14:40:43.989Z,9.17
2019-04-29T14:43:28.498Z,9.50
2019-04-29T14:46:15.988Z,9.20
2019-04-29T14:48:46.595Z,8.27
2019-04-29T14:51:17.571Z,9.77
2019-04-29T14:53:56.121Z,8.50
2019-04-29T14:56:19.333Z,8.10
2019-04-29T14:58:49.290Z,9.17
2019-04-29T15:01:39.715Z,9.10
2019-04-29T15:04:19.227Z,8.43
2019-04-29T15:06:42.952Z,8.90
2019-04-29T15:09:18.161Z,8.83
2019-04-29T15:12:03.860Z,8.20
2019-04-29T15:14:59.208Z,9.70
2019-04-29T15:17:44.983Z,9.13
2019-04-29T15:20:20.893Z,8.97
2019-04-29T15:22:56.493Z,9.37
2019-04-29T15:25:38.182Z,9.20
2019-04-29T15:28:09.930Z,9.97
2019-04-29T15:30:40.159Z,10.00
2019-04-29T15:33:11.810Z,10.80
2019-04-29T15:35:46.890Z,9.37
2019-04-29T15:38:20.127Z,8.97
2019-04-29T15:40:52.507Z,9.70
2019-04-29T15:43:47.807Z,8.53
2019-04-29T15:46:18.435Z,8.30
2019-04-29T15:49:07.544Z,8.07
2019-04-29T15:51:49.347Z,7.60
2019-04-29T15:54:19.952Z,8.73
2019-04-29T15:57:09.256Z,8.47
2019-04-29T16:00:00.018Z,10.10
2019-04-29T16:02:30.224Z,8.43
2019-04-29T16:05:17.604Z,8.57
2019-04-29T16:08:04.668Z,10.20
2019-04-29T16:11:29.425Z,8.50
2019-04-29T16:14:09.106Z,8.93
2019-04-29T16:16:51.800Z,7.87
2019-04-29T16:19:24.371Z,7.47
2019-04-29T16:21:54.590Z,6.60
2019-04-29T16:24:48.336Z,6.00
2019-04-29T16:27:19.352Z,6.50
2019-04-29T16:29:54.140Z,7.10
2019-04-29T16:32:40.351Z,6.63
2019-04-29T16:35:34.870Z,6.43
2019-04-29T16:38:05.758Z,6.37
2019-04-29T16:40:41.377Z,5.97
2019-04-29T16:43:36.861Z,6.23
2019-04-29T16:46:13.058Z,6.17
2019-04-29T16:49:02.225Z,5.40
2019-04-29T16:51:33.710Z,4.83
2019-04-29T16:54:12.683Z,4.23
2019-04-29T16:56:55.207Z,3.97
2019-04-29T16:59:25.288Z,3.37
2019-04-29T17:05:22.316Z,3.30
2019-04-29T17:08:15.179Z,3.50
2019-04-29T17:11:17.585Z,2.63
2019-04-29T17:13:48.777Z,3.67
2019-04-29T17:16:23.765Z,4.30
2019-04-29T17:18:54.055Z,4.33
2019-04-29T17:21:25.286Z,9.67
2019-04-29T17:23:57.805Z,3.90
2019-04-29T17:26:58.146Z,3.60
2019-04-29T17:29:55.037Z,4.03
2019-04-29T17:32:52.421Z,4.53
2019-04-29T17:37:55.604Z,5.57
2019-04-29T17:40:26.594Z,7.40
2019-04-29T17:43:15.262Z,8.07
2019-04-29T17:45:58.024Z,9.43
2019-04-29T17:48:37.481Z,9.23
2019-04-29T17:51:08.372Z,10.23
2019-04-29T17:53:49.415Z,10.50
2019-04-29T17:56:48.492Z,10.50
2019-04-29T18:00:00.506Z,11.20
2019-04-29T18:03:01.537Z,10.80
2019-04-29T18:05:57.671Z,10.43
2019-04-29T18:08:33.863Z,10.60
2019-04-29T18:11:07.984Z,11.37
2019-04-29T18:13:38.295Z,10.20
2019-04-29T18:16:39.451Z,11.37
2019-04-29T18:19:17.533Z,9.90
2019-04-29T18:22:07.166Z,10.77
2019-04-29T18:24:43.195Z,10.77
2019-04-29T18:27:17.230Z,10.13
2019-04-29T18:29:47.363Z,9.50
2019-04-29T18:32:17.258Z,9.43
2019-04-29T18:34:47.024Z,10.10
2019-04-29T18:37:16.875Z,10.47
2019-04-29T18:39:48.523Z,9.33
2019-04-29T18:42:18.706Z,9.97
2019-04-29T18:44:55.130Z,9.00
2019-04-29T18:47:22.946Z,9.27
2019-04-29T18:49:51.713Z,9.67
2019-04-29T18:52:25.786Z,9.60
2019-04-29T18:54:54.825Z,9.47
2019-04-29T18:57:30.030Z,8.47
2019-04-29T18:59:56.235Z,9.20
2019-04-29T19:02:27.490Z,9.10
2019-04-29T19:05:33.957Z,8.83
2019-04-29T19:08:14.815Z,8.37
2019-04-29T19:10:43.709Z,8.40
2019-04-29T19:13:16.746Z,9.00
2019-04-29T19:15:48.441Z,7.87
2019-04-29T19:18:21.165Z,7.53
2019-04-29T19:20:52.727Z,7.67
2019-04-29T19:23:29.331Z,9.13
2019-04-29T19:25:57.131Z,8.43
2019-04-29T19:28:32.341Z,8.67
2019-04-29T19:31:03.018Z,8.30
2019-04-29T19:33:37.647Z,8.37
2019-04-29T19:36:09.083Z,8.33
2019-04-29T19:38:43.319Z,8.77
2019-04-29T19:41:16.300Z,8.67
2019-04-29T19:43:54.817Z,8.13
2019-04-29T19:46:41.294Z,8.43
2019-04-29T19:49:10.384Z,8.87
2019-04-29T19:51:43.519Z,8.60
2019-04-29T19:54:12.117Z,8.67
2019-04-29T19:56:41.980Z,7.97
2019-04-29T19:59:14.768Z,8.07
2019-04-29T20:01:48.463Z,7.43
2019-04-29T20:04:39.272Z,7.60
2019-04-29T20:07:10.626Z,7.70
2019-04-29T20:09:42.034Z,8.10
2019-04-29T20:12:14.364Z,8.63
2019-04-29T20:14:44.294Z,7.50
2019-04-29T20:17:33.595Z,7.87
2019-04-29T20:20:18.091Z,8.37
2019-04-29T20:22:51.151Z,9.27
2019-04-29T20:25:29.363Z,10.03
2019-04-29T20:28:02.653Z,8.93
2019-04-29T20:30:23.979Z,10.60
2019-04-29T20:32:55.901Z,9.07
2019-04-29T20:35:27.208Z,10.33
2019-04-29T20:38:00.219Z,9.20
2019-04-29T20:40:35.208Z,10.03
2019-04-29T20:43:00.241Z,8.40
2019-04-29T20:45:30.197Z,9.50
2019-04-29T20:48:00.102Z,9.07
2019-04-29T20:50:30.148Z,9.37
2019-04-29T20:53:25.641Z,9.20
2019-04-29T20:55:55.721Z,9.80
2019-04-29T20:58:32.802Z,9.07
2019-04-29T21:01:03.149Z,8.93
2019-04-29T21:03:32.463Z,9.40
2019-04-29T21:06:04.000Z,9.43
2019-04-29T21:08:34.955Z,8.33
2019-04-29T21:11:14.302Z,9.37
2019-04-29T21:14:09.128Z,8.27
2019-04-29T21:16:42.492Z,7.80
2019-04-29T21:19:12.841Z,7.83
2019-04-29T21:21:45.478Z,8.60
2019-04-29T21:24:18.454Z,8.57
2019-04-29T21:26:46.067Z,7.80
2019-04-29T21:29:19.415Z,7.90
2019-04-29T21:31:50.622Z,7.97
2019-04-29T21:34:21.810Z,7.97
2019-04-29T21:37:06.650Z,8.40
2019-04-29T21:39:55.118Z,7.87
2019-04-29T21:42:35.731Z,7.87
2019-04-29T21:45:08.718Z,8.03
2019-04-29T21:47:42.717Z,8.40
2019-04-29T21:50:10.899Z,8.00
2019-04-29T21:52:40.851Z,8.17
2019-04-29T21:55:10.856Z,8.47
2019-04-29T21:57:40.647Z,7.57
2019-04-29T22:00:11.900Z,8.63
2019-04-29T22:02:45.792Z,8.20
2019-04-29T22:05:14.754Z,8.33
2019-04-29T22:07:47.443Z,8.47
2019-04-29T22:10:19.913Z,8.57
2019-04-29T22:12:50.941Z,9.43
2019-04-29T22:15:29.783Z,8.90
2019-04-29T22:17:56.526Z,8.83
2019-04-29T22:20:23.444Z,9.77
2019-04-29T22:22:55.467Z,8.40
2019-04-29T22:25:25.790Z,9.10
2019-04-29T22:27:56.499Z,8.93
2019-04-29T22:30:28.133Z,9.90
2019-04-29T22:32:58.790Z,10.33
2019-04-29T22:35:32.693Z,9.40
2019-04-29T22:38:00.879Z,9.30
2019-04-29T22:40:34.216Z,9.87
2019-04-29T22:43:19.763Z,9.27
2019-04-29T22:45:49.653Z,8.97
2019-04-29T22:48:19.924Z,9.50
2019-04-29T22:50:50.082Z,9.63
2019-04-29T22:53:19.897Z,11.20
2019-04-29T22:55:49.722Z,9.50
2019-04-29T22:58:19.547Z,9.00
2019-04-29T23:00:49.319Z,9.80
2019-04-29T23:03:19.129Z,9.73
2019-04-29T23:05:49.009Z,10.07
2019-04-29T23:08:19.877Z,9.23
2019-04-29T23:10:49.854Z,9.33
2019-04-29T23:13:19.675Z,9.70
2019-04-29T23:15:53.683Z,9.27
2019-04-29T23:18:26.639Z,8.83
2019-04-29T23:21:29.656Z,9.30
2019-04-29T23:24:13.773Z,9.87
2019-04-29T23:26:44.906Z,8.80
2019-04-29T23:29:15.568Z,9.80
2019-04-29T23:31:45.486Z,8.57
2019-04-29T23:34:15.628Z,8.90
2019-04-29T23:36:48.827Z,8.80
2019-04-29T23:39:17.091Z,9.00
2019-04-29T23:41:47.013Z,8.50
2019-04-29T23:44:16.826Z,8.67
2019-04-29T23:46:47.518Z,8.93
2019-04-29T23:49:17.464Z,10.00
2019-04-29T23:51:47.270Z,8.83
2019-04-29T23:54:17.061Z,9.63
2019-04-29T23:57:07.841Z,9.00
2019-04-29T23:59:39.122Z,8.83
